createdAt,value
2023-04-19T00:01:14.567Z,102318.76
2023-04-19T00:06:21.184Z,102328.08
2023-04-19T00:11:26.700Z,102325.92
2023-04-19T00:16:32.276Z,102326.47
2023-04-19T00:21:37.776Z,102322.42
2023-04-19T00:26:43.207Z,102318.42
2023-04-19T00:31:49.399Z,102315.30
2023-04-19T00:36:54.833Z,102302.82
2023-04-19T00:42:01.524Z,102297.06
2023-04-19T00:47:07.744Z,102288.08
2023-04-19T00:52:13.325Z,102282.82
2023-04-19T00:57:19.920Z,102270.06
2023-04-19T01:02:28.714Z,102261.55
2023-04-19T01:07:35.480Z,102255.38
2023-04-19T01:12:40.973Z,102256.25
2023-04-19T01:17:48.193Z,102245.23
2023-04-19T01:22:53.745Z,102248.36
2023-04-19T01:27:59.406Z,102239.94
2023-04-19T01:33:04.973Z,102233.38
2023-04-19T01:38:10.619Z,102227.59
2023-04-19T01:43:22.058Z,102226.20
2023-04-19T01:48:27.634Z,102209.76
2023-04-19T01:53:33.193Z,102204.19
2023-04-19T01:58:39.769Z,102196.92
2023-04-19T02:03:45.613Z,102206.70
2023-04-19T02:08:51.477Z,102195.72
2023-04-19T02:13:56.954Z,102180.77
2023-04-19T02:19:02.434Z,102174.05
2023-04-19T02:24:08.522Z,102181.20
2023-04-19T02:29:13.953Z,102171.41
2023-04-19T02:34:19.612Z,102177.66
2023-04-19T02:39:25.104Z,102168.39
2023-04-19T02:44:31.414Z,102164.95
2023-04-19T02:49:38.186Z,102162.23
2023-04-19T02:54:44.058Z,102155.13
2023-04-19T02:59:49.614Z,102152.95
2023-04-19T03:04:55.556Z,102142.88
2023-04-19T03:10:01.570Z,102135.92
2023-04-19T03:15:10.047Z,102129.13
2023-04-19T03:20:17.202Z,102121.75
2023-04-19T03:25:23.785Z,102120.83
2023-04-19T03:30:31.081Z,102102.33
2023-04-19T03:35:37.467Z,102099.58
2023-04-19T03:40:44.570Z,102095.72
2023-04-19T03:45:52.058Z,102091.76
2023-04-19T03:50:58.091Z,102090.55
2023-04-19T03:56:04.520Z,102087.45
2023-04-19T04:01:21.503Z,102081.31
2023-04-19T04:06:28.152Z,102078.63
2023-04-19T04:11:34.331Z,102070.59
2023-04-19T04:16:40.428Z,102071.45
2023-04-19T04:21:46.342Z,102058.09
2023-04-19T04:26:52.686Z,102059.28
2023-04-19T04:32:00.071Z,102051.28
2023-04-19T04:37:09.007Z,102057.34
2023-04-19T04:42:15.705Z,102047.09
2023-04-19T04:47:22.250Z,102048.64
2023-04-19T04:52:30.499Z,102043.41
2023-04-19T04:57:40.855Z,102046.19
2023-04-19T05:02:48.080Z,102045.73
2023-04-19T05:07:54.109Z,102037.25
2023-04-19T05:12:59.605Z,102033.66
2023-04-19T05:18:07.631Z,102022.92
2023-04-19T05:23:13.562Z,102021.87
2023-04-19T05:28:20.640Z,102018.48
2023-04-19T05:33:34.302Z,102014.89
2023-04-19T05:38:40.088Z,102019.45
2023-04-19T05:43:45.913Z,102020.59
2023-04-19T05:48:52.348Z,102013.09
2023-04-19T05:54:10.498Z,102004.38
2023-04-19T05:59:17.542Z,101995.52
2023-04-19T06:04:23.991Z,101990.42
2023-04-19T06:09:30.055Z,101994.53
2023-04-19T06:14:35.817Z,101998.56
2023-04-19T06:19:41.516Z,101990.61
2023-04-19T06:24:47.874Z,101993.16
2023-04-19T06:29:53.446Z,102005.24
2023-04-19T06:34:58.946Z,102000.13
2023-04-19T06:40:06.268Z,101983.55
2023-04-19T06:45:12.905Z,101981.56
2023-04-19T06:50:18.674Z,101991.94
2023-04-19T06:55:24.419Z,101981.39
2023-04-19T07:00:29.956Z,101977.06
2023-04-19T07:05:36.975Z,101966.73
2023-04-19T07:10:43.973Z,101971.28
2023-04-19T07:15:49.552Z,101957.77
2023-04-19T07:20:54.994Z,101954.16
2023-04-19T07:26:00.512Z,101954.03
2023-04-19T07:31:06.169Z,101951.69
2023-04-19T07:36:12.280Z,101946.11
2023-04-19T07:41:18.328Z,101944.17
2023-04-19T07:46:23.917Z,101940.67
2023-04-19T07:51:29.493Z,101931.37
2023-04-19T07:56:35.083Z,101933.80
2023-04-19T08:01:40.797Z,101931.37
2023-04-19T08:06:46.530Z,101935.56
2023-04-19T08:11:53.622Z,101933.14
2023-04-19T08:17:22.400Z,101931.58
2023-04-19T08:22:06.256Z,101925.17
2023-04-19T08:27:12.214Z,101923.83
2023-04-19T08:32:17.778Z,101909.45
2023-04-19T08:37:26.488Z,101912.48
2023-04-19T08:42:37.145Z,101912.63
2023-04-19T08:52:58.750Z,101894.95
2023-04-19T08:57:58.926Z,101890.87
2023-04-19T09:03:04.707Z,101890.81
2023-04-19T09:08:30.650Z,101882.83
2023-04-19T09:13:40.710Z,101882.65
2023-04-19T09:19:11.576Z,101862.75
2023-04-19T09:24:07.793Z,101865.11
2023-04-19T09:29:16.705Z,101861.60
2023-04-19T09:34:24.279Z,101852.98
2023-04-19T09:39:36.277Z,101847.80
2023-04-19T09:45:16.941Z,101828.02
2023-04-19T09:49:49.817Z,101833.45
2023-04-19T09:54:56.376Z,101822.92
2023-04-19T10:00:04.874Z,101822.59
2023-04-19T10:05:20.280Z,101814.97
2023-04-19T10:10:33.010Z,101814.70
2023-04-19T10:15:49.334Z,101815.72
2023-04-19T10:20:54.903Z,101801.09
2023-04-19T10:26:00.493Z,101796.62
2023-04-19T10:31:06.782Z,101792.53
2023-04-19T10:36:14.505Z,101771.67
2023-04-19T10:41:20.982Z,101776.02
2023-04-19T10:46:30.123Z,101783.00
2023-04-19T10:51:38.940Z,101788.09
2023-04-19T10:57:06.040Z,101760.08
2023-04-19T11:02:28.297Z,101753.44
2023-04-19T11:07:39.825Z,101750.77
2023-04-19T11:12:46.151Z,101739.11
2023-04-19T11:18:08.734Z,101730.52
2023-04-19T11:23:01.145Z,101735.00
2023-04-19T11:28:07.085Z,101723.81
2023-04-19T11:33:14.179Z,101709.21
2023-04-19T11:38:19.756Z,101707.55
2023-04-19T11:43:25.347Z,101707.70
2023-04-19T11:48:30.963Z,101698.01
2023-04-19T11:53:36.553Z,101680.27
2023-04-19T11:58:50.912Z,101660.41
2023-04-19T12:03:57.788Z,101691.13
2023-04-19T12:09:06.533Z,101681.52
2023-04-19T12:14:14.874Z,101673.70
2023-04-19T12:19:20.907Z,101676.12
2023-04-19T12:24:26.421Z,101682.33
2023-04-19T12:29:32.005Z,101670.87
2023-04-19T12:34:37.617Z,101667.78
2023-04-19T12:39:43.080Z,101671.78
2023-04-19T12:44:48.728Z,101671.92
2023-04-19T12:49:55.858Z,101668.73
2023-04-19T12:55:01.510Z,101670.00
2023-04-19T13:00:10.045Z,101658.69
2023-04-19T13:05:15.575Z,101650.33
2023-04-19T13:10:21.401Z,101653.28
2023-04-19T13:15:28.716Z,101644.29
2023-04-19T13:20:34.358Z,101639.70
2023-04-19T13:25:41.486Z,101622.73
2023-04-19T13:30:46.930Z,101626.75
2023-04-19T13:35:52.365Z,101613.09
2023-04-19T13:40:57.945Z,101617.52
2023-04-19T13:46:03.458Z,101599.85
2023-04-19T13:51:09.246Z,101622.31
2023-04-19T13:56:15.866Z,101601.98
2023-04-19T14:01:22.541Z,101604.72
2023-04-19T14:06:28.072Z,101590.14
2023-04-19T14:11:34.029Z,101596.36
2023-04-19T14:16:39.631Z,101598.61
2023-04-19T14:21:45.193Z,101593.17
2023-04-19T14:27:03.524Z,101584.64
2023-04-19T14:32:05.082Z,101585.20
2023-04-19T14:37:06.562Z,101586.84
2023-04-19T14:42:12.136Z,101578.75
2023-04-19T14:47:17.611Z,101590.84
2023-04-19T14:52:24.707Z,101580.48
2023-04-19T14:57:30.349Z,101585.60
2023-04-19T15:02:37.648Z,101580.16
2023-04-19T15:07:43.452Z,101570.95
2023-04-19T15:12:48.998Z,101571.29
2023-04-19T15:17:54.503Z,101585.91
2023-04-19T15:23:00.249Z,101585.45
2023-04-19T15:28:06.073Z,101590.94
2023-04-19T15:33:11.868Z,101577.55
2023-04-19T15:38:19.087Z,101586.00
2023-04-19T15:43:25.462Z,101590.26
2023-04-19T15:48:31.095Z,101582.16
2023-04-19T15:53:37.048Z,101593.90
2023-04-19T15:58:43.297Z,101591.54
2023-04-19T16:03:48.815Z,101596.51
2023-04-19T16:08:54.421Z,101592.29
2023-04-19T16:14:00.234Z,101598.95
2023-04-19T16:19:20.205Z,101603.02
2023-04-19T16:24:26.516Z,101602.94
2023-04-19T16:29:32.514Z,101600.00
2023-04-19T16:34:38.218Z,101605.43
2023-04-19T16:39:43.719Z,101603.38
2023-04-19T16:44:49.216Z,101606.09
2023-04-19T16:49:56.214Z,101611.02
2023-04-19T16:55:03.673Z,101622.21
2023-04-19T17:00:10.781Z,101619.64
2023-04-19T17:05:16.954Z,101613.34
2023-04-19T17:10:22.570Z,101613.20
2023-04-19T17:15:28.392Z,101608.78
2023-04-19T17:20:34.134Z,101613.37
2023-04-19T17:25:39.742Z,101615.02
2023-04-19T17:30:47.213Z,101623.94
2023-04-19T17:35:52.676Z,101633.01
2023-04-19T17:40:58.753Z,101636.19
2023-04-19T17:46:04.254Z,101642.18
2023-04-19T17:51:09.936Z,101643.75
2023-04-19T17:56:15.533Z,101646.41
2023-04-19T18:01:21.342Z,101652.00
2023-04-19T18:06:27.344Z,101654.06
2023-04-19T18:11:32.919Z,101665.91
2023-04-19T18:16:38.455Z,101656.13
2023-04-19T18:21:44.163Z,101661.97
2023-04-19T18:26:49.627Z,101664.69
2023-04-19T18:31:55.762Z,101659.97
2023-04-19T18:37:04.590Z,101669.72
2023-04-19T18:42:10.122Z,101678.23
2023-04-19T18:47:15.610Z,101667.80
2023-04-19T18:52:21.261Z,101669.16
2023-04-19T18:57:27.875Z,101666.74
2023-04-19T19:02:34.633Z,101668.48
2023-04-19T19:07:41.848Z,101664.33
2023-04-19T19:12:47.694Z,101671.82
2023-04-19T19:17:53.222Z,101678.59
2023-04-19T19:22:59.552Z,101681.41
2023-04-19T19:28:09.759Z,101687.87
2023-04-19T19:33:14.089Z,101682.59
2023-04-19T19:38:19.845Z,101684.13
2023-04-19T19:43:25.286Z,101672.89
2023-04-19T19:48:32.488Z,101671.51
2023-04-19T19:53:38.621Z,101681.53
2023-04-19T19:58:49.648Z,101689.56
2023-04-19T20:03:51.771Z,101706.31
2023-04-19T20:08:57.660Z,101703.95
2023-04-19T20:14:03.297Z,101714.87
2023-04-19T20:19:31.088Z,101708.94
2023-04-19T20:24:38.104Z,101711.03
2023-04-19T20:29:43.616Z,101714.52
2023-04-19T20:34:49.047Z,101717.81
2023-04-19T20:39:56.200Z,101710.52
2023-04-19T20:45:01.743Z,101704.83
2023-04-19T20:50:08.678Z,101638.02
2023-04-19T20:55:14.632Z,101698.81
2023-04-19T21:00:20.374Z,101706.11
2023-04-19T21:05:27.521Z,101706.86
2023-04-19T21:10:33.327Z,101709.95
2023-04-19T21:15:38.875Z,101698.97
2023-04-19T21:20:44.493Z,101701.38
2023-04-19T21:25:50.388Z,101717.13
2023-04-19T21:30:56.107Z,101719.12
2023-04-19T21:36:01.613Z,101713.11
2023-04-19T21:41:08.565Z,101717.98
2023-04-19T21:46:14.314Z,101706.74
2023-04-19T21:51:19.841Z,101694.92
2023-04-19T21:56:25.505Z,101699.11
2023-04-19T22:01:30.946Z,101701.55
2023-04-19T22:06:37.012Z,101699.34
2023-04-19T22:11:43.418Z,101694.74
2023-04-19T22:16:49.013Z,101686.88
2023-04-19T22:21:55.517Z,101686.11
2023-04-19T22:27:02.045Z,101679.85
2023-04-19T22:32:07.729Z,101671.55
2023-04-19T22:37:13.329Z,101672.52
2023-04-19T22:42:18.846Z,101666.63
2023-04-19T22:47:24.370Z,101667.23
2023-04-19T22:52:29.801Z,101673.72
2023-04-19T22:57:35.448Z,101681.77
2023-04-19T23:02:41.323Z,101674.13
2023-04-19T23:07:46.825Z,101675.03
2023-04-19T23:12:54.298Z,101677.95
2023-04-19T23:18:01.442Z,101670.11
2023-04-19T23:23:08.054Z,101673.02
2023-04-19T23:28:13.823Z,101668.52
2023-04-19T23:33:19.407Z,101665.48
2023-04-19T23:38:25.004Z,101666.20
2023-04-19T23:43:31.671Z,101658.57
2023-04-19T23:48:37.273Z,101648.36
2023-04-19T23:53:42.779Z,101637.45
2023-04-19T23:58:48.354Z,101633.59
